»·PEaware :: DCM205 KMRY-KSBA

DCM205 :: KMRY-KSBA

FLIGHT INFORMATION

Flight Status: Arrived
Operator:
DotCom
More flights by this operator :: More flights under this callsign
Pilot: Ben W. (5837)
Aircraft: DEHAVILLAND DASH 8 400
(DH8D)
More flights by this aircraft type
Origin: KMRY Monterey Peninsula
United States
Destination: KSBA Santa Barbara Mun
United States
More flights between these airports :: More routes between these airports
Route: +MRY5 SHOEY SNS V25 PRB GVO
File this flight plan on PilotEdge
Remarks:
Altitude:
(Current/Filed)
19,000ft
Speed:
(Current/Filed)
350kts
Departed: 11-Jul-20 02:25 PM
Arrived: 11-Jul-20 03:16 PM
Distance/Time
Traveled:
163nm/0:51
Distance/Time
To Go:
Arrived

Flight Plot

Page will automatically refresh every two minutes.

Flight plan parsing failed; only flown route is shown


Map Options




Map Legend


Flown Route
Filed Route
Departure Airport
Arrival Airport
Navaid (VOR, NDB)
Fix

Horizontal Profiles

Position Reports

Time Latitude Longitude Heading Altitude Ground
Speed
11-Jul-20 14:08 36.587660 -121.849916 238 212ft 0kts
11-Jul-20 14:09 36.587660 -121.849916 238 212ft 0kts
11-Jul-20 14:10 36.587660 -121.849916 238 212ft 0kts
11-Jul-20 14:11 36.587660 -121.849916 238 212ft 0kts
11-Jul-20 14:12 36.587660 -121.849916 238 212ft 0kts
11-Jul-20 14:13 36.587660 -121.849916 238 212ft 0kts
11-Jul-20 14:14 36.587660 -121.849916 238 212ft 0kts
11-Jul-20 14:15 36.587660 -121.849916 238 212ft 0kts
11-Jul-20 14:16 36.587933 -121.849344 240 212ft 3kts
11-Jul-20 14:17 36.587946 -121.849314 240 212ft 0kts
11-Jul-20 14:18 36.587946 -121.849314 240 212ft 0kts
11-Jul-20 14:19 36.587733 -121.849011 112 212ft 7kts
11-Jul-20 14:20 36.586383 -121.845432 112 212ft 11kts
11-Jul-20 14:21 36.584943 -121.841174 112 212ft 16kts
11-Jul-20 14:22 36.583222 -121.836078 112 212ft 15kts
11-Jul-20 14:23 36.582839 -121.834838 93 212ft 3kts
11-Jul-20 14:24 36.584269 -121.836286 292 212ft 71kts
11-Jul-20 14:25 36.601361 -121.876902 333 1733ft 159kts
11-Jul-20 14:26 36.646308 -121.895450 341 4209ft 165kts
11-Jul-20 14:27 36.690963 -121.915179 330 6547ft 167kts
11-Jul-20 14:28 36.716407 -121.968521 282 8439ft 176kts
11-Jul-20 14:29 36.729358 -122.029830 282 10294ft 183kts
11-Jul-20 14:30 36.755932 -122.082923 356 11871ft 203kts
11-Jul-20 14:31 36.779297 -122.032990 106 13516ft 192kts
11-Jul-20 14:32 36.760888 -121.964775 114 14674ft 230kts
11-Jul-20 14:33 36.737907 -121.881693 111 15426ft 264kts
11-Jul-20 14:34 36.714565 -121.793400 111 16514ft 270kts
11-Jul-20 14:35 36.690746 -121.703834 111 17486ft 275kts
11-Jul-20 14:36 36.665277 -121.613297 122 18343ft 276kts
11-Jul-20 14:37 36.609853 -121.549213 144 18953ft 275kts
11-Jul-20 14:38 36.548354 -121.487850 144 19092ft 292kts
11-Jul-20 14:39 36.483736 -121.423494 144 19089ft 305kts
11-Jul-20 14:40 36.416723 -121.356853 144 19088ft 313kts
11-Jul-20 14:41 36.348400 -121.289152 144 19083ft 318kts
11-Jul-20 14:42 36.278499 -121.219986 144 19072ft 324kts
11-Jul-20 14:43 36.207671 -121.150031 144 19064ft 328kts
11-Jul-20 14:44 36.136219 -121.079677 144 19057ft 330kts
11-Jul-20 14:45 36.064267 -121.008956 144 19051ft 330kts
11-Jul-20 14:46 35.992246 -120.938294 144 18893ft 334kts
11-Jul-20 14:47 35.918965 -120.866882 144 17387ft 338kts
11-Jul-20 14:48 35.845404 -120.795116 144 15881ft 334kts
11-Jul-20 14:49 35.773354 -120.724998 144 14384ft 327kts
11-Jul-20 14:50 35.702661 -120.656434 144 12883ft 320kts
11-Jul-20 14:52 35.627912 -120.605202 161 11395ft 297kts
11-Jul-20 14:53 35.552760 -120.570465 160 10396ft 285kts
11-Jul-20 14:54 35.479572 -120.535795 159 9396ft 282kts
11-Jul-20 14:55 35.406882 -120.501274 158 8386ft 268kts
11-Jul-20 14:56 35.339487 -120.469230 158 8010ft 259kts
11-Jul-20 14:57 35.271293 -120.436989 158 7998ft 268kts
11-Jul-20 14:58 35.200560 -120.403623 158 7997ft 274kts
11-Jul-20 14:59 35.130870 -120.370831 158 8001ft 263kts
11-Jul-20 15:00 35.066609 -120.333164 138 7987ft 256kts
11-Jul-20 15:01 35.012973 -120.272296 137 7563ft 266kts
11-Jul-20 15:02 34.959187 -120.211919 138 7507ft 259kts
11-Jul-20 15:03 34.905246 -120.155556 140 7502ft 253kts
11-Jul-20 15:04 34.851013 -120.101845 141 7499ft 249kts
11-Jul-20 15:05 34.796153 -120.048578 141 7481ft 255kts
11-Jul-20 15:06 34.740790 -119.995098 141 7477ft 254kts
11-Jul-20 15:06 34.694463 -119.950283 141 7473ft 257kts
11-Jul-20 15:08 34.628862 -119.886891 141 7472ft 259kts
11-Jul-20 15:09 34.572315 -119.832081 141 7475ft 260kts
11-Jul-20 15:09 34.526380 -119.789109 145 6383ft 239kts
11-Jul-20 15:11 34.466129 -119.747081 164 4756ft 189kts
11-Jul-20 15:11 34.431165 -119.763354 236 3278ft 170kts
11-Jul-20 15:12 34.433220 -119.807586 331 2093ft 131kts
11-Jul-20 15:14 34.431376 -119.799131 252 1632ft 126kts
11-Jul-20 15:14 34.427877 -119.834305 265 52ft 113kts
11-Jul-20 15:15 34.427455 -119.851583 232 17ft 8kts
11-Jul-20 15:16 34.426701 -119.851712 149 17ft 2kts
11-Jul-20 15:17 34.426522 -119.847538 88 17ft 18kts
11-Jul-20 15:18 34.426640 -119.841770 88 17ft 15kts
11-Jul-20 15:19 34.425690 -119.837959 138 17ft 8kts
11-Jul-20 15:20 34.425369 -119.837154 113 17ft 0kts
11-Jul-20 15:21 34.425369 -119.837154 113 17ft 0kts
11-Jul-20 15:22 34.425369 -119.837154 113 17ft 0kts
11-Jul-20 15:23 34.425369 -119.837154 113 17ft 0kts

Navigation Log

Ident Type
Flight plan parsing failed, navigation log unavailable